Time;durP1;ratioP1;P1;durP2;ratioP2;P2;SDS_P1;SDS_P2;PMS_P1;PMS_P2;Temp;Humidity;BMP_temperature;BMP_pressure;BME280_temperature;BME280_humidity;BME280_pressure;Samples;Min_cycle;Max_cycle;Signal;HPM_P1;HPM_P2
2023/03/20 00:00:23;;;;;;;7.95;5.25;;;16.00;70.30;;;;;;10446206;28;20036;-55
2023/03/20 00:05:25;;;;;;;6.15;4.80;;;16.00;70.30;;;;;;10446971;28;20033;-55
2023/03/20 00:10:36;;;;;;;7.88;5.40;;;16.00;70.30;;;;;;10445673;28;20041;-55
2023/03/20 00:15:40;;;;;;;9.55;5.35;;;16.00;70.30;;;;;;10445606;28;20039;-55
2023/03/20 00:20:40;;;;;;;7.55;5.45;;;16.10;70.30;;;;;;10445462;28;20028;-54
2023/03/20 00:25:44;;;;;;;6.50;4.72;;;16.00;70.30;;;;;;10445259;28;20420;-55
2023/03/20 00:30:44;;;;;;;7.13;4.65;;;16.00;70.20;;;;;;10445218;28;20017;-55
2023/03/20 00:35:45;;;;;;;6.78;5.13;;;16.00;70.20;;;;;;10431687;28;20025;-54
2023/03/20 00:40:46;;;;;;;6.80;4.72;;;16.00;70.20;;;;;;10446307;28;20025;-54
2023/03/20 00:45:46;;;;;;;6.95;4.80;;;16.00;70.20;;;;;;10444923;28;20029;-55
2023/03/20 00:50:48;;;;;;;6.43;4.82;;;16.00;70.10;;;;;;10445094;28;20013;-55
2023/03/20 00:55:49;;;;;;;5.90;4.50;;;16.00;70.20;;;;;;10445992;28;20492;-54
2023/03/20 01:00:50;;;;;;;6.55;4.82;;;16.00;70.10;;;;;;10446146;28;20040;-55
2023/03/20 01:05:51;;;;;;;8.52;4.95;;;16.00;70.20;;;;;;10434804;28;20055;-55
2023/03/20 01:10:57;;;;;;;6.18;4.20;;;16.00;70.20;;;;;;10431618;28;20048;-55
2023/03/20 01:15:58;;;;;;;6.95;4.30;;;15.90;70.10;;;;;;10458845;28;20024;-54
2023/03/20 01:20:59;;;;;;;6.00;5.03;;;16.00;70.10;;;;;;10453516;28;20025;-54
2023/03/20 01:26:00;;;;;;;5.93;4.45;;;15.90;70.10;;;;;;10435379;28;20029;-55
2023/03/20 01:31:01;;;;;;;7.88;4.88;;;15.90;70.00;;;;;;10453531;28;20459;-55
2023/03/20 01:36:02;;;;;;;5.70;4.05;;;15.90;69.90;;;;;;10438255;28;20112;-55
2023/03/20 01:41:09;;;;;;;5.75;4.03;;;15.90;69.90;;;;;;10452884;28;20017;-55
2023/03/20 01:46:10;;;;;;;5.30;4.32;;;15.90;70.00;;;;;;10451320;28;20112;-55
2023/03/20 01:51:11;;;;;;;5.47;4.40;;;15.90;70.00;;;;;;10450731;28;20035;-55
2023/03/20 01:56:14;;;;;;;6.97;4.75;;;15.90;69.90;;;;;;10434153;28;20017;-55
2023/03/20 02:01:15;;;;;;;7.03;4.20;;;15.90;70.00;;;;;;10450594;28;20029;-55
2023/03/20 02:06:17;;;;;;;5.63;4.15;;;15.90;69.90;;;;;;10450290;28;20021;-55
2023/03/20 02:11:22;;;;;;;5.28;4.32;;;15.90;69.90;;;;;;10451373;28;20358;-55
2023/03/20 02:16:22;;;;;;;7.13;3.30;;;15.90;69.80;;;;;;10433513;28;20029;-55
2023/03/20 02:22:20;;;;;;;4.90;3.70;;;15.80;69.80;;;;;;10460245;28;20454;-55
2023/03/20 02:28:17;;;;;;;4.60;3.40;;;15.80;69.70;;;;;;10449442;28;20075;-55
2023/03/20 02:33:52;;;;;;;7.28;4.45;;;15.80;69.80;;;;;;10450689;28;20029;-55
2023/03/20 02:39:15;;;;;;;5.30;3.80;;;15.80;69.80;;;;;;10463123;28;20421;-55
2023/03/20 02:45:17;;;;;;;4.95;3.10;;;15.80;69.70;;;;;;10450402;28;20610;-55
2023/03/20 02:51:14;;;;;;;4.05;3.00;;;15.80;69.70;;;;;;10450137;28;20547;-54
2023/03/20 02:56:48;;;;;;;4.47;3.20;;;15.80;69.70;;;;;;10436734;28;20055;-56
2023/03/20 03:02:01;;;;;;;4.63;3.42;;;15.80;69.70;;;;;;10449280;28;20017;-55
2023/03/20 03:07:04;;;;;;;5.68;3.10;;;15.80;69.70;;;;;;10431624;28;20470;-55
2023/03/20 03:12:14;;;;;;;4.32;3.13;;;15.70;69.60;;;;;;10447607;28;20048;-55
2023/03/20 03:17:19;;;;;;;4.10;2.85;;;15.80;69.70;;;;;;10436397;28;20035;-56
2023/03/20 03:22:20;;;;;;;3.92;2.92;;;15.70;69.70;;;;;;10446724;28;20022;-55
2023/03/20 03:27:38;;;;;;;3.97;3.03;;;15.70;69.70;;;;;;10446849;28;20029;-55
2023/03/20 03:32:49;;;;;;;4.30;2.75;;;15.70;69.70;;;;;;10446645;28;20028;-55
2023/03/20 03:37:59;;;;;;;4.05;2.47;;;15.70;69.70;;;;;;10434315;28;20516;-55
2023/03/20 03:43:09;;;;;;;3.92;2.75;;;15.70;69.70;;;;;;10447627;28;20021;-55
2023/03/20 03:48:25;;;;;;;3.67;2.90;;;15.70;69.70;;;;;;10462734;28;20039;-55
2023/03/20 03:53:34;;;;;;;5.55;3.05;;;15.70;69.70;;;;;;10445982;28;20118;-55
2023/03/20 03:58:43;;;;;;;3.93;2.73;;;15.70;69.60;;;;;;10446045;28;20113;-54
2023/03/20 04:03:56;;;;;;;5.35;3.10;;;15.70;69.60;;;;;;10441799;28;20086;-55
2023/03/20 04:08:57;;;;;;;3.90;2.53;;;15.70;69.60;;;;;;10445140;28;20052;-55
2023/03/20 04:13:57;;;;;;;3.40;2.10;;;15.70;69.60;;;;;;10445613;28;20027;-54
2023/03/20 04:18:58;;;;;;;4.63;2.58;;;15.60;69.60;;;;;;10446464;28;20092;-55
2023/03/20 04:23:59;;;;;;;4.45;2.90;;;15.70;69.60;;;;;;10445045;28;20117;-55
2023/03/20 04:29:00;;;;;;;3.88;2.72;;;15.60;69.60;;;;;;10446454;28;20660;-55
2023/03/20 04:34:01;;;;;;;4.18;2.63;;;15.60;69.60;;;;;;10439533;28;20071;-55
2023/03/20 04:39:01;;;;;;;3.90;2.70;;;15.60;69.60;;;;;;10454909;28;20442;-55
2023/03/20 04:44:02;;;;;;;3.85;2.70;;;15.60;70.20;;;;;;10445637;28;20405;-54
2023/03/20 04:49:03;;;;;;;4.00;2.42;;;15.60;69.60;;;;;;10453857;28;20096;-54
2023/03/20 04:54:04;;;;;;;5.25;2.90;;;15.60;69.60;;;;;;10423036;28;20040;-55
2023/03/20 04:59:04;;;;;;;5.57;2.90;;;15.60;69.60;;;;;;10453986;28;20029;-54
2023/03/20 05:04:05;;;;;;;4.57;2.97;;;15.60;69.60;;;;;;10453699;28;20072;-55
2023/03/20 05:09:06;;;;;;;4.28;2.53;;;15.60;69.60;;;;;;10453571;28;20066;-55
2023/03/20 05:14:06;;;;;;;3.83;3.00;;;15.60;69.60;;;;;;10453188;28;20871;-55
2023/03/20 05:19:07;;;;;;;2.88;2.08;;;15.50;69.50;;;;;;10452972;28;20100;-55
2023/03/20 05:24:08;;;;;;;3.47;2.30;;;15.60;69.70;;;;;;10451641;28;20033;-55
2023/03/20 05:29:08;;;;;;;3.25;2.15;;;15.60;69.50;;;;;;10451656;28;20053;-55
2023/03/20 05:34:09;;;;;;;4.57;2.83;;;15.70;69.00;;;;;;10450487;28;20590;-55
2023/03/20 05:39:10;;;;;;;4.18;2.60;;;15.90;68.60;;;;;;10448441;28;20019;-55
2023/03/20 05:44:11;;;;;;;3.38;2.75;;;15.90;68.50;;;;;;10432980;28;20380;-54
2023/03/20 05:49:11;;;;;;;5.55;4.88;;;15.90;68.50;;;;;;10447188;28;20056;-53
2023/03/20 05:54:12;;;;;;;10.40;3.75;;;16.00;70.10;;;;;;10442179;28;20453;-53
2023/03/20 05:59:13;;;;;;;4.22;3.17;;;16.20;69.90;;;;;;10435533;28;20079;-56
2023/03/20 06:04:13;;;;;;;6.25;3.60;;;16.30;70.80;;;;;;10449364;28;20056;-56
2023/03/20 06:09:14;;;;;;;9.10;3.58;;;16.30;70.20;;;;;;10449108;28;20135;-54
2023/03/20 06:14:15;;;;;;;7.82;3.35;;;16.40;70.00;;;;;;10448879;28;20460;-56
2023/03/20 06:19:16;;;;;;;7.80;3.88;;;16.40;70.70;;;;;;10447823;28;20108;-56
2023/03/20 06:24:16;;;;;;;8.35;3.65;;;16.50;71.20;;;;;;10464718;28;20123;-55
2023/03/20 06:29:17;;;;;;;6.57;3.58;;;16.50;71.00;;;;;;10447568;28;20005;-54
2023/03/20 06:34:18;;;;;;;10.80;4.20;;;16.40;70.90;;;;;;10446580;28;20031;-58
2023/03/20 06:39:18;;;;;;;20.65;5.07;;;16.40;70.80;;;;;;10448102;28;20104;-57
2023/03/20 06:44:19;;;;;;;31.85;6.35;;;16.30;71.10;;;;;;10446141;28;20076;-56
2023/03/20 06:49:20;;;;;;;14.77;5.13;;;16.20;71.50;;;;;;10446393;28;20376;-56
2023/03/20 06:54:21;;;;;;;17.38;6.35;;;16.30;71.60;;;;;;10444828;28;20013;-55
2023/03/20 06:59:22;;;;;;;24.02;6.25;;;16.30;71.70;;;;;;10440075;28;20035;-57
2023/03/20 07:04:23;;;;;;;22.13;5.93;;;16.20;71.70;;;;;;10418786;28;20031;-55
2023/03/20 07:09:24;;;;;;;17.00;6.10;;;16.10;71.70;;;;;;10445989;28;20417;-57
2023/03/20 07:14:25;;;;;;;17.70;6.47;;;16.10;71.80;;;;;;10445431;28;20013;-57
2023/03/20 07:19:26;;;;;;;11.18;4.72;;;16.00;71.60;;;;;;10425553;28;20025;-56
2023/03/20 07:24:27;;;;;;;12.57;4.75;;;15.90;71.50;;;;;;10443896;28;20461;-57
2023/03/20 07:29:28;;;;;;;19.58;5.15;;;15.90;71.60;;;;;;10444744;28;20029;-58
2023/03/20 07:34:29;;;;;;;26.20;5.40;;;15.90;71.40;;;;;;10445226;28;20380;-57
2023/03/20 07:39:30;;;;;;;26.13;6.65;;;15.90;71.80;;;;;;10444619;28;20380;-57
2023/03/20 07:44:30;;;;;;;19.75;5.47;;;15.90;71.70;;;;;;10444178;28;20123;-57
2023/03/20 07:49:32;;;;;;;12.77;4.57;;;15.90;71.70;;;;;;10443249;28;20092;-57
2023/03/20 07:54:33;;;;;;;25.85;5.22;;;15.90;71.90;;;;;;10444400;28;20037;-56
2023/03/20 07:59:34;;;;;;;14.30;5.03;;;15.80;71.80;;;;;;10450651;28;20048;-57
2023/03/20 08:04:35;;;;;;;15.98;4.90;;;15.80;71.60;;;;;;10402435;28;20040;-55
2023/03/20 08:09:36;;;;;;;16.77;5.22;;;15.90;71.50;;;;;;10415284;28;20037;-57
2023/03/20 08:14:37;;;;;;;11.00;4.80;;;15.90;71.60;;;;;;10424765;28;20473;-56
2023/03/20 08:19:38;;;;;;;11.48;4.22;;;15.90;71.70;;;;;;10428544;28;20021;-56
2023/03/20 08:24:39;;;;;;;11.00;4.35;;;15.90;71.60;;;;;;10454788;28;20108;-55
2023/03/20 08:29:40;;;;;;;15.10;3.70;;;15.90;71.50;;;;;;10443240;28;20017;-57
2023/03/20 08:34:40;;;;;;;16.05;5.20;;;15.90;71.60;;;;;;10442040;28;20009;-57
2023/03/20 08:39:41;;;;;;;9.85;3.80;;;16.00;71.60;;;;;;10441972;28;20364;-55
2023/03/20 08:44:42;;;;;;;15.32;3.92;;;16.00;71.30;;;;;;10443714;28;20116;-57
2023/03/20 08:49:43;;;;;;;10.23;5.40;;;16.00;71.00;;;;;;10441749;28;20466;-56
2023/03/20 08:54:43;;;;;;;8.13;3.03;;;16.00;71.60;;;;;;10443452;28;20332;-55
2023/03/20 08:59:44;;;;;;;13.82;3.40;;;16.00;71.60;;;;;;10441365;28;20158;-54
2023/03/20 09:04:45;;;;;;;10.02;3.45;;;16.00;71.70;;;;;;10443341;28;20120;-55
2023/03/20 09:09:45;;;;;;;10.80;2.88;;;16.00;71.30;;;;;;10443155;28;20176;-55
2023/03/20 09:14:46;;;;;;;11.90;3.72;;;15.90;71.30;;;;;;10436888;28;20191;-55
2023/03/20 09:19:47;;;;;;;11.60;3.78;;;15.90;71.40;;;;;;10441343;28;20423;-55
2023/03/20 09:24:47;;;;;;;9.63;3.10;;;15.90;71.30;;;;;;10443022;28;20029;-56
2023/03/20 09:29:49;;;;;;;7.65;3.38;;;15.90;71.30;;;;;;10424965;28;20078;-53
2023/03/20 09:34:50;;;;;;;9.77;3.35;;;15.90;71.60;;;;;;10450231;28;20513;-52
2023/03/20 09:39:51;;;;;;;8.38;3.30;;;15.90;71.40;;;;;;10449849;28;20416;-54
2023/03/20 09:45:38;;;;;;;8.45;3.28;;;15.90;71.50;;;;;;10448780;28;20374;-54
2023/03/20 09:50:55;;;;;;;6.93;3.42;;;15.90;71.60;;;;;;10443562;28;20500;-52
2023/03/20 09:55:57;;;;;;;8.85;3.50;;;15.90;71.50;;;;;;10429590;28;20027;-52
2023/03/20 10:01:01;;;;;;;8.27;2.53;;;16.00;71.40;;;;;;10447910;28;20021;-53
2023/03/20 10:06:12;;;;;;;12.52;3.78;;;16.00;71.40;;;;;;10448550;28;20492;-52
2023/03/20 10:11:49;;;;;;;9.63;3.35;;;16.00;71.30;;;;;;10425395;28;20073;-54
2023/03/20 10:17:21;;;;;;;11.65;3.65;;;16.00;71.30;;;;;;10444773;28;20025;-52
2023/03/20 10:22:28;;;;;;;8.15;3.08;;;15.90;70.90;;;;;;10393736;28;20120;-53
2023/03/20 10:27:45;;;;;;;4.80;1.95;;;16.00;71.30;;;;;;10424239;28;20473;-55
2023/03/20 10:33:26;;;;;;;5.93;2.50;;;16.00;71.20;;;;;;10409137;28;20421;-50
2023/03/20 10:38:48;;;;;;;4.70;2.67;;;16.00;71.00;;;;;;10415718;28;20108;-55
2023/03/20 10:43:51;;;;;;;10.02;3.17;;;16.00;70.70;;;;;;10419630;28;20029;-55
2023/03/20 10:49:13;;;;;;;8.30;2.10;;;16.00;70.70;;;;;;10444448;28;20040;-53
2023/03/20 10:54:29;;;;;;;5.07;2.30;;;16.00;71.00;;;;;;10415539;28;20033;-53
2023/03/20 10:59:44;;;;;;;4.40;1.98;;;16.00;71.00;;;;;;10412764;28;20021;-53
2023/03/20 11:04:45;;;;;;;3.92;2.05;;;16.00;71.00;;;;;;10412354;28;20052;-54
2023/03/20 11:10:06;;;;;;;4.35;1.90;;;16.10;71.10;;;;;;10411041;28;20611;-54
2023/03/20 11:15:23;;;;;;;5.03;2.25;;;16.00;71.00;;;;;;10438062;28;20492;-55
2023/03/20 11:20:26;;;;;;;5.47;2.20;;;16.00;71.10;;;;;;10424149;28;20017;-52
2023/03/20 11:25:37;;;;;;;6.53;1.88;;;15.90;70.80;;;;;;10444579;28;20512;-54
2023/03/20 11:30:41;;;;;;;5.50;2.10;;;16.00;70.90;;;;;;10444305;28;20105;-53
2023/03/20 11:35:46;;;;;;;8.38;2.30;;;16.00;71.10;;;;;;10444182;28;20028;-54
2023/03/20 11:40:51;;;;;;;7.72;3.35;;;16.00;70.80;;;;;;10428226;28;20539;-55
2023/03/20 11:45:59;;;;;;;5.47;2.10;;;16.00;70.80;;;;;;10439194;28;20032;-55
2023/03/20 11:51:09;;;;;;;7.90;1.95;;;16.20;70.90;;;;;;10441535;28;20013;-55
2023/03/20 11:56:27;;;;;;;5.75;1.75;;;16.30;70.50;;;;;;10443494;28;20101;-55
2023/03/20 12:01:37;;;;;;;8.15;2.30;;;16.40;70.50;;;;;;10444117;28;20013;-54
2023/03/20 12:06:50;;;;;;;5.68;1.73;;;16.50;69.90;;;;;;10433755;28;20360;-54
2023/03/20 12:12:18;;;;;;;3.65;1.77;;;16.40;69.90;;;;;;10438025;28;20057;-55
2023/03/20 12:17:54;;;;;;;6.70;2.72;;;16.40;69.30;;;;;;10422695;28;20029;-56
2023/03/20 12:23:04;;;;;;;7.72;2.70;;;16.50;69.20;;;;;;10440503;28;20056;-55
2023/03/20 12:28:26;;;;;;;11.05;3.13;;;16.50;69.10;;;;;;10440777;28;20493;-54
2023/03/20 12:33:41;;;;;;;4.30;1.30;;;16.50;68.70;;;;;;10440077;28;20063;-56
2023/03/20 12:38:44;;;;;;;7.57;1.45;;;16.50;68.80;;;;;;10416394;28;20045;-56
2023/03/20 12:44:34;;;;;;;7.97;1.85;;;16.40;69.30;;;;;;10427656;28;20049;-55
2023/03/20 12:49:50;;;;;;;3.28;1.55;;;16.30;70.20;;;;;;10435722;28;20348;-55
2023/03/20 12:55:28;;;;;;;5.93;1.90;;;16.30;70.40;;;;;;10442327;28;20250;-56
2023/03/20 13:00:48;;;;;;;5.95;2.15;;;16.40;69.80;;;;;;10432720;28;20036;-56
2023/03/20 13:06:03;;;;;;;4.97;1.70;;;16.40;70.00;;;;;;10433193;28;20033;-55
2023/03/20 13:11:22;;;;;;;5.72;1.60;;;16.40;69.30;;;;;;10450819;28;20044;-56
2023/03/20 13:16:58;;;;;;;5.67;1.60;;;16.30;69.20;;;;;;10451078;28;20108;-48
2023/03/20 13:22:16;;;;;;;8.52;2.22;;;16.20;69.80;;;;;;10451376;28;20115;-55
2023/03/20 13:27:48;;;;;;;10.98;2.53;;;16.30;70.20;;;;;;10449338;28;20450;-55
2023/03/20 13:33:07;;;;;;;9.63;2.85;;;16.40;70.00;;;;;;10450516;28;20024;-54
2023/03/20 13:38:25;;;;;;;15.87;4.17;;;16.50;69.70;;;;;;10450215;28;20317;-54
2023/03/20 13:43:36;;;;;;;17.70;3.28;;;16.60;70.20;;;;;;10448862;28;20017;-55
2023/03/20 13:48:42;;;;;;;9.52;2.08;;;16.50;70.10;;;;;;10449048;28;20029;-53
2023/03/20 13:54:19;;;;;;;12.52;2.45;;;16.60;70.10;;;;;;10432215;28;20045;-56
2023/03/20 13:59:53;;;;;;;9.45;2.45;;;16.60;70.30;;;;;;10449580;28;20047;-55
2023/03/20 14:05:16;;;;;;;9.52;2.42;;;16.60;70.10;;;;;;10449462;28;20060;-55
2023/03/20 14:10:19;;;;;;;10.70;2.05;;;16.50;70.30;;;;;;10448574;28;20047;-55
2023/03/20 14:15:21;;;;;;;11.52;2.83;;;16.50;69.90;;;;;;10449134;28;20405;-56
2023/03/20 14:20:31;;;;;;;13.73;3.20;;;16.50;70.10;;;;;;10426295;28;20019;-56
2023/03/20 14:25:40;;;;;;;14.05;3.88;;;16.60;70.00;;;;;;10443574;28;20025;-52
2023/03/20 14:30:45;;;;;;;13.43;2.80;;;16.60;70.20;;;;;;10436577;28;20037;-54
2023/03/20 14:36:08;;;;;;;11.48;2.83;;;16.60;70.50;;;;;;10445883;28;20021;-54
2023/03/20 14:41:48;;;;;;;21.08;3.38;;;16.50;70.30;;;;;;10442631;28;20024;-56
2023/03/20 14:46:57;;;;;;;13.02;3.15;;;16.50;70.60;;;;;;10424284;28;20099;-55
2023/03/20 14:52:11;;;;;;;;;;;16.50;70.80;;;;;;10447793;28;20076;-55
2023/03/20 14:57:32;;;;;;;12.88;3.10;;;16.40;70.50;;;;;;10435936;28;19944;-53
2023/03/20 15:02:35;;;;;;;24.48;4.47;;;16.40;70.80;;;;;;10433230;28;20021;-53
2023/03/20 15:07:38;;;;;;;11.48;3.00;;;16.20;71.50;;;;;;10420243;28;20029;-55
2023/03/20 15:12:39;;;;;;;22.42;3.47;;;16.30;71.20;;;;;;10413565;28;20537;-54
2023/03/20 15:17:46;;;;;;;25.58;4.28;;;16.30;71.00;;;;;;10419073;28;20029;-54
2023/03/20 15:22:55;;;;;;;29.40;4.72;;;16.20;71.40;;;;;;10432294;28;20029;-54
2023/03/20 15:27:56;;;;;;;34.75;5.20;;;16.20;71.50;;;;;;10422726;28;20026;-54
2023/03/20 15:32:57;;;;;;;31.30;5.97;;;16.20;71.80;;;;;;10457397;28;20634;-55
2023/03/20 15:38:06;;;;;;;30.70;5.35;;;16.20;71.70;;;;;;10443998;28;20021;-54
2023/03/20 15:43:23;;;;;;;36.40;5.72;;;16.20;71.70;;;;;;10443694;28;20473;-54
2023/03/20 15:48:25;;;;;;;32.90;6.68;;;16.20;71.80;;;;;;10443954;28;20546;-55
2023/03/20 15:53:37;;;;;;;24.05;5.68;;;16.20;72.00;;;;;;10445184;28;20340;-53
2023/03/20 15:58:40;;;;;;;38.17;8.35;;;16.20;72.00;;;;;;10443365;28;20041;-54
2023/03/20 16:03:41;;;;;;;34.28;11.32;;;16.20;71.70;;;;;;10443021;28;20705;-51
2023/03/20 16:08:44;;;;;;;34.55;10.60;;;16.20;71.50;;;;;;10444593;28;20099;-52
2023/03/20 16:13:47;;;;;;;26.63;10.20;;;16.10;71.30;;;;;;10443153;28;20357;-53
2023/03/20 16:18:50;;;;;;;27.60;9.52;;;16.30;71.30;;;;;;10424844;28;20337;-49
2023/03/20 16:23:55;;;;;;;22.73;7.22;;;16.70;70.10;;;;;;10430706;28;20108;-53
2023/03/20 16:29:01;;;;;;;22.88;8.20;;;17.10;71.40;;;;;;10415322;28;20021;-53
2023/03/20 16:34:14;;;;;;;26.08;8.35;;;17.30;70.60;;;;;;10441905;28;20025;-53
2023/03/20 16:39:15;;;;;;;21.23;7.38;;;17.30;71.30;;;;;;10412230;28;20025;-53
2023/03/20 16:44:26;;;;;;;25.75;6.53;;;17.10;70.70;;;;;;10437798;28;20033;-53
2023/03/20 16:49:36;;;;;;;26.10;8.68;;;17.00;70.90;;;;;;10441326;28;20017;-52
2023/03/20 16:54:37;;;;;;;30.90;5.80;;;16.90;71.20;;;;;;10423212;28;20025;-52
2023/03/20 16:59:39;;;;;;;25.13;7.03;;;16.80;72.20;;;;;;10441529;28;20036;-54
2023/03/20 17:04:40;;;;;;;26.10;6.90;;;16.90;71.90;;;;;;10427582;28;20033;-55
2023/03/20 17:10:01;;;;;;;38.05;8.55;;;16.80;72.20;;;;;;10435391;28;20049;-56
2023/03/20 17:15:03;;;;;;;30.48;10.98;;;16.90;72.20;;;;;;10422609;28;20061;-54
2023/03/20 17:20:04;;;;;;;29.88;10.02;;;16.90;72.50;;;;;;10398715;28;20764;-55
2023/03/20 17:25:05;;;;;;;23.45;9.75;;;16.80;72.60;;;;;;10419879;28;20036;-54
2023/03/20 17:30:18;;;;;;;31.85;10.68;;;16.80;72.70;;;;;;10424729;28;20022;-53
2023/03/20 17:35:19;;;;;;;28.10;8.50;;;16.70;73.00;;;;;;10434710;28;20032;-52
2023/03/20 17:40:24;;;;;;;22.88;8.23;;;16.70;73.00;;;;;;10445395;28;20021;-51
2023/03/20 17:45:24;;;;;;;24.48;8.30;;;16.60;73.00;;;;;;10429018;28;20032;-53
2023/03/20 17:50:26;;;;;;;23.13;9.55;;;16.70;73.10;;;;;;10431650;28;20096;-52
2023/03/20 17:55:26;;;;;;;19.85;7.80;;;16.60;73.00;;;;;;10442781;28;20033;-54
2023/03/20 18:00:27;;;;;;;24.80;7.32;;;16.60;73.50;;;;;;10437796;28;20017;-53
2023/03/20 18:05:28;;;;;;;22.35;7.97;;;16.60;73.70;;;;;;10437625;28;20112;-53
2023/03/20 18:10:33;;;;;;;20.50;9.60;;;16.60;73.70;;;;;;10438901;28;20128;-52
2023/03/20 18:15:36;;;;;;;15.02;7.63;;;16.50;73.90;;;;;;10440135;28;20059;-53
2023/03/20 18:20:39;;;;;;;18.40;6.50;;;16.50;73.80;;;;;;10448789;28;20024;-53
2023/03/20 18:25:41;;;;;;;20.05;7.22;;;16.50;73.90;;;;;;10447845;28;20094;-53
2023/03/20 18:30:41;;;;;;;16.63;6.88;;;16.40;73.90;;;;;;10423247;28;20104;-52
2023/03/20 18:35:42;;;;;;;12.32;6.65;;;16.40;73.60;;;;;;10448863;28;20021;-54
2023/03/20 18:40:46;;;;;;;17.88;6.60;;;16.40;73.30;;;;;;10449302;28;20025;-54
2023/03/20 18:45:46;;;;;;;17.60;6.97;;;16.30;73.30;;;;;;10438925;28;20562;-54
2023/03/20 18:50:49;;;;;;;17.67;6.55;;;16.30;73.40;;;;;;10449269;28;20104;-55
2023/03/20 18:55:50;;;;;;;9.27;5.65;;;16.30;73.40;;;;;;10448848;28;20540;-54
2023/03/20 19:00:52;;;;;;;14.38;6.10;;;16.20;73.40;;;;;;10460140;28;20045;-52
2023/03/20 19:05:56;;;;;;;13.60;5.70;;;16.30;72.90;;;;;;10434452;28;20025;-54
2023/03/20 19:10:57;;;;;;;10.90;5.82;;;16.30;72.60;;;;;;10444669;28;20049;-53
2023/03/20 19:15:57;;;;;;;11.98;5.00;;;16.30;72.50;;;;;;10447672;28;20033;-54
2023/03/20 19:20:58;;;;;;;8.50;5.07;;;16.30;72.50;;;;;;10428021;28;20056;-54
2023/03/20 19:25:59;;;;;;;11.45;5.10;;;16.30;72.30;;;;;;10440030;28;20604;-55
2023/03/20 19:31:00;;;;;;;11.40;5.80;;;16.20;72.10;;;;;;10447916;28;20064;-54
2023/03/20 19:36:02;;;;;;;9.98;5.15;;;16.30;71.90;;;;;;10449140;28;20021;-54
2023/03/20 19:41:02;;;;;;;8.75;4.32;;;16.40;71.70;;;;;;10444127;28;20025;-56
2023/03/20 19:46:03;;;;;;;10.65;4.50;;;16.40;71.40;;;;;;10441451;28;20116;-55
2023/03/20 19:51:04;;;;;;;10.73;4.30;;;16.50;71.10;;;;;;10444964;28;20479;-56
2023/03/20 19:56:05;;;;;;;12.25;4.28;;;16.50;70.90;;;;;;10427463;28;20059;-59
2023/03/20 20:01:10;;;;;;;9.30;5.20;;;16.60;70.60;;;;;;10444810;28;20039;-56
2023/03/20 20:06:11;;;;;;;9.65;4.63;;;16.60;71.00;;;;;;10444041;28;20021;-54
2023/03/20 20:11:13;;;;;;;8.30;4.57;;;16.60;70.30;;;;;;10445218;28;20490;-56
2023/03/20 20:16:14;;;;;;;9.88;4.10;;;16.60;70.20;;;;;;10440753;28;20108;-55
2023/03/20 20:21:15;;;;;;;8.85;4.35;;;16.70;69.90;;;;;;10459114;28;20055;-55
2023/03/20 20:26:15;;;;;;;9.40;3.63;;;16.70;69.90;;;;;;10440433;28;20036;-56
2023/03/20 20:31:16;;;;;;;10.27;7.15;;;16.70;69.70;;;;;;10443882;28;20025;-56
2023/03/20 20:36:17;;;;;;;6.13;3.80;;;16.70;69.70;;;;;;10439222;28;20116;-56
2023/03/20 20:41:17;;;;;;;7.88;3.25;;;16.60;69.80;;;;;;10439397;28;20021;-55
2023/03/20 20:46:18;;;;;;;12.27;5.03;;;16.60;70.10;;;;;;10445315;28;20067;-55
2023/03/20 20:51:21;;;;;;;4.30;3.03;;;16.50;70.30;;;;;;10442959;28;20109;-53
2023/03/20 20:56:21;;;;;;;7.30;3.78;;;16.50;70.40;;;;;;10418063;28;20083;-55
2023/03/20 21:01:22;;;;;;;8.27;3.75;;;16.40;70.60;;;;;;10444500;28;20090;-55
2023/03/20 21:06:23;;;;;;;6.63;4.30;;;16.30;70.60;;;;;;10427499;28;20621;-54
2023/03/20 21:11:24;;;;;;;8.73;3.55;;;16.30;70.70;;;;;;10438872;28;20102;-55
2023/03/20 21:16:25;;;;;;;7.70;3.28;;;16.30;70.80;;;;;;10458424;28;20079;-55
2023/03/20 21:21:25;;;;;;;7.80;3.00;;;16.20;70.90;;;;;;10442210;28;20028;-56
2023/03/20 21:26:26;;;;;;;5.35;3.17;;;16.20;70.90;;;;;;10442970;28;20069;-56
2023/03/20 21:31:28;;;;;;;5.88;3.97;;;16.10;71.00;;;;;;10450552;28;20140;-56
2023/03/20 21:36:28;;;;;;;6.35;3.28;;;16.10;71.00;;;;;;10448816;28;20017;-55
2023/03/20 21:41:29;;;;;;;9.23;3.72;;;16.10;71.10;;;;;;10449375;28;20017;-54
2023/03/20 21:46:30;;;;;;;8.18;3.58;;;16.10;71.10;;;;;;10444866;28;20120;-55
2023/03/20 21:51:31;;;;;;;7.38;3.80;;;16.00;71.20;;;;;;10452444;28;20120;-56
2023/03/20 21:56:31;;;;;;;5.10;3.20;;;16.00;71.20;;;;;;10449829;28;20571;-55
2023/03/20 22:01:32;;;;;;;4.90;3.45;;;16.00;71.30;;;;;;10451082;28;20460;-56
2023/03/20 22:06:33;;;;;;;5.07;3.75;;;16.00;71.30;;;;;;10450667;28;20594;-54
2023/03/20 22:11:34;;;;;;;4.70;3.15;;;15.90;71.40;;;;;;10450634;28;20041;-55
2023/03/20 22:16:35;;;;;;;6.22;3.53;;;15.90;71.50;;;;;;10450679;28;20361;-54
2023/03/20 22:21:38;;;;;;;5.40;2.53;;;15.90;71.50;;;;;;10449363;28;20040;-55
2023/03/20 22:26:39;;;;;;;5.10;3.00;;;15.90;71.50;;;;;;10435838;28;20040;-54
2023/03/20 22:31:41;;;;;;;4.90;2.97;;;15.90;71.60;;;;;;10450562;28;20041;-55
2023/03/20 22:36:43;;;;;;;5.50;3.17;;;15.80;71.60;;;;;;10437276;28;20049;-55
2023/03/20 22:41:44;;;;;;;4.50;2.85;;;15.80;71.60;;;;;;10443328;28;20032;-55
2023/03/20 22:46:45;;;;;;;4.43;3.00;;;15.70;71.50;;;;;;10448869;28;20067;-53
2023/03/20 22:51:46;;;;;;;5.65;2.85;;;15.70;71.50;;;;;;10449219;28;20051;-54
2023/03/20 22:56:46;;;;;;;5.38;3.13;;;15.70;71.50;;;;;;10449333;28;20104;-55
2023/03/20 23:01:47;;;;;;;4.88;3.15;;;15.70;71.40;;;;;;10448263;28;20171;-55
2023/03/20 23:06:48;;;;;;;6.45;3.55;;;15.70;71.50;;;;;;10449258;28;20481;-54
2023/03/20 23:11:48;;;;;;;5.45;2.70;;;15.70;71.50;;;;;;10445896;28;20045;-54
2023/03/20 23:16:50;;;;;;;5.18;3.08;;;15.70;71.50;;;;;;10447533;28;20024;-56
2023/03/20 23:21:50;;;;;;;4.15;2.88;;;15.70;71.60;;;;;;10447664;28;20079;-55
2023/03/20 23:26:53;;;;;;;5.55;3.67;;;15.70;71.50;;;;;;10446059;28;20696;-55
2023/03/20 23:31:53;;;;;;;4.00;2.67;;;15.60;71.50;;;;;;10447514;28;20036;-56
2023/03/20 23:36:54;;;;;;;4.47;2.92;;;15.60;71.50;;;;;;10447067;28;20454;-54
2023/03/20 23:41:55;;;;;;;5.57;2.63;;;15.60;71.50;;;;;;10447159;28;20729;-57
2023/03/20 23:46:55;;;;;;;4.25;2.95;;;15.60;71.50;;;;;;10447648;28;20120;-55
2023/03/20 23:51:56;;;;;;;4.25;2.78;;;15.60;71.50;;;;;;10447575;28;20128;-54
2023/03/20 23:56:57;;;;;;;5.90;3.00;;;15.60;71.40;;;;;;10435780;28;20472;-54
